Darstellungsparameter: Aktuell verwendete Einstellungen:
Skalierung der Graphiken ... ?
xyx+y,   Skalierungsfaktor:      Skalierung: Modus: x, Faktor: 1
Darstellungszeitraum ... ?
Vom - - bis: - -   Zeitraum: 20.07.2020 - 22.07.2020
Min/Max/Avg-Anzeige ... ?
Zeige MMA aktuell
Zeige MMA Monat
Zeige MMA alles
Zeige --A aktuell
Zeige --A Monat
Zeige --A alles
Keine MMA-Anzeige
MMA:
Average (ber die Originaldaten)
MMA-Basis: 20.07.2020 - 22.07.2020
Quicknavigation für Darstellung... ?
Tage:      1T, 2T, 3T, 5T -1T -2T -3T -5T +1T +2T +3T +5T
Wochen: 1W, 2W, 3W -1W -2W -3W +1W +2W +3W
Monate: 1M, 3M, 6M -1M -3M -6M +1M +3M +6M
Jahre:    1J, 3J, 5J, 10J -1J -3J -5J -10J +1J +3J +5J +10J
Nutze für die Darstellung ... ?
Originaldaten oder Mittelwerte auf ...
Stundenbasis Tagesbasis Wochenbasis
Monatsbasis Jahresbasis      Datenbasis: Original-Daten
Darstellen als:
Statistik (Auto) Statistik J:M      Darstellung:
Zur Graphik,    zurück zur Übersicht aller Sensoren.
 
Tabellarische Datenbersicht: ?
 
Sensor: Nr:Datum:Temp:Abs-Feuchte:Windchill:Wind:
Aussen-T/F 1 20-07-2020 00:00:00 20.8 C 10.32 g/m*3 20.8 C 3.2 km/h
2 20-07-2020 00:05:00 20.7 C 10.62 g/m*3 20.7 C 1.6 km/h
3 20-07-2020 00:10:00 20.5 C 10.14 g/m*3 20.5 C 0 km/h
4 20-07-2020 00:15:00 20.3 C 10.2 g/m*3 20.3 C 0 km/h
5 20-07-2020 00:20:00 20.2 C 10.32 g/m*3 20.2 C 4.8 km/h
6 20-07-2020 00:25:00 20.1 C 10.08 g/m*3 20.1 C 1.6 km/h
7 20-07-2020 00:30:00 19.8 C 10.08 g/m*3 19.8 C 4.8 km/h
8 20-07-2020 00:35:00 19.7 C 10.19 g/m*3 19.7 C 4.8 km/h
9 20-07-2020 00:40:00 19.4 C 9.84 g/m*3 19.4 C 4.8 km/h
10 20-07-2020 00:45:00 19.3 C 9.95 g/m*3 19.3 C 6.4 km/h
11 20-07-2020 00:50:00 19.2 C 9.89 g/m*3 19.2 C 6.4 km/h
12 20-07-2020 00:55:00 19.2 C 9.89 g/m*3 19.2 C 0 km/h
13 20-07-2020 01:00:00 19.1 C 10.33 g/m*3 19.1 C 1.6 km/h
14 20-07-2020 01:05:00 18.9 C 10.04 g/m*3 18.9 C 3.2 km/h
15 20-07-2020 01:10:00 18.8 C 9.99 g/m*3 18.8 C 3.2 km/h
16 20-07-2020 01:15:00 18.6 C 10.19 g/m*3 18.6 C 3.2 km/h
17 20-07-2020 01:20:00 18.5 C 10.13 g/m*3 18.5 C 4.8 km/h
18 20-07-2020 01:25:00 18.3 C 10.16 g/m*3 18.3 C 3.2 km/h
19 20-07-2020 01:30:00 18.3 C 10.48 g/m*3 18.3 C 6.4 km/h
20 20-07-2020 01:35:00 18.3 C 10.63 g/m*3 18.3 C 6.4 km/h
21 20-07-2020 01:40:00 18.2 C 10.57 g/m*3 18.2 C 3.2 km/h
22 20-07-2020 01:45:00 18.1 C 10.51 g/m*3 18.1 C 1.6 km/h
23 20-07-2020 01:50:00 18.1 C 10.66 g/m*3 18.1 C 1.6 km/h
24 20-07-2020 01:55:00 18.1 C 10.82 g/m*3 18.1 C 0 km/h
25 20-07-2020 02:00:00 18.2 C 10.72 g/m*3 18.2 C 8.1 km/h
Sensor: Nr:Datum:Temp:Abs-Feuchte:Windchill:Wind:
Aussen-T/F 26 20-07-2020 02:05:00 18.3 C 10.79 g/m*3 18.3 C 4.8 km/h
27 20-07-2020 02:10:00 18.3 C 10.94 g/m*3 18.3 C 3.2 km/h
28 20-07-2020 02:15:00 18.3 C 11.1 g/m*3 18.3 C 0 km/h
29 20-07-2020 02:20:00 18.2 C 11.04 g/m*3 18.2 C 0 km/h
30 20-07-2020 02:25:00 18.1 C 11.12 g/m*3 18.1 C 4.8 km/h
31 20-07-2020 02:30:00 18.1 C 11.28 g/m*3 18.1 C 4.8 km/h
32 20-07-2020 02:35:00 18 C 11.37 g/m*3 18 C 6.4 km/h
33 20-07-2020 02:40:00 18.1 C 11.43 g/m*3 18.1 C 6.4 km/h
34 20-07-2020 02:45:00 18.2 C 11.5 g/m*3 18.2 C 4.8 km/h
35 20-07-2020 02:50:00 18.3 C 11.57 g/m*3 18.3 C 3.2 km/h
36 20-07-2020 02:55:00 18.3 C 11.57 g/m*3 18.3 C 0 km/h
37 20-07-2020 03:00:00 18.3 C 11.73 g/m*3 18.3 C 0 km/h
38 20-07-2020 03:05:00 18.2 C 11.66 g/m*3 18.2 C 3.2 km/h
39 20-07-2020 03:10:00 18.1 C 11.74 g/m*3 18.1 C 4.8 km/h
40 20-07-2020 03:15:00 17.9 C 11.76 g/m*3 17.9 C 3.2 km/h
41 20-07-2020 03:20:00 17.8 C 11.84 g/m*3 17.8 C 3.2 km/h
42 20-07-2020 03:25:00 17.7 C 11.77 g/m*3 17.7 C 4.8 km/h
43 20-07-2020 03:30:00 17.6 C 11.85 g/m*3 17.6 C 3.2 km/h
44 20-07-2020 03:35:00 17.4 C 11.71 g/m*3 17.4 C 0 km/h
45 20-07-2020 03:40:00 17.3 C 11.79 g/m*3 17.3 C 0 km/h
46 20-07-2020 03:45:00 17.2 C 11.72 g/m*3 17.2 C 0 km/h
47 20-07-2020 03:50:00 17.1 C 11.79 g/m*3 17.1 C 0 km/h
48 20-07-2020 03:55:00 16.9 C 11.79 g/m*3 16.9 C 0 km/h
49 20-07-2020 04:00:00 16.8 C 11.72 g/m*3 16.8 C 0 km/h
50 20-07-2020 04:05:00 16.8 C 11.87 g/m*3 16.8 C 0 km/h
Sensor: Nr:Datum:Temp:Abs-Feuchte:Windchill:Wind:
Aussen-T/F 51 20-07-2020 04:10:00 16.7 C 11.8 g/m*3 16.7 C 0 km/h
52 20-07-2020 04:15:00 16.6 C 11.72 g/m*3 16.6 C 0 km/h
53 20-07-2020 04:20:00 16.6 C 11.87 g/m*3 16.6 C 0 km/h
54 20-07-2020 04:25:00 16.4 C 11.86 g/m*3 16.4 C 0 km/h
55 20-07-2020 04:30:00 16.4 C 11.86 g/m*3 16.4 C 0 km/h
56 20-07-2020 04:35:00 16.3 C 11.79 g/m*3 16.3 C 0 km/h
57 20-07-2020 04:40:00 16.3 C 11.79 g/m*3 16.3 C 0 km/h
58 20-07-2020 04:45:00 16.2 C 11.86 g/m*3 16.2 C 0 km/h
59 20-07-2020 04:50:00 16.2 C 11.86 g/m*3 16.2 C 0 km/h
60 20-07-2020 04:55:00 16.2 C 12 g/m*3 16.2 C 0 km/h
61 20-07-2020 05:00:00 16.1 C 11.79 g/m*3 16.1 C 0 km/h
62 20-07-2020 05:05:00 16.1 C 11.93 g/m*3 16.1 C 0 km/h
63 20-07-2020 05:10:00 16.1 C 11.93 g/m*3 16.1 C 0 km/h
64 20-07-2020 05:15:00 16 C 11.99 g/m*3 16 C 0 km/h
65 20-07-2020 05:20:00 16 C 11.99 g/m*3 16 C 0 km/h
66 20-07-2020 05:25:00 15.9 C 11.92 g/m*3 15.9 C 0 km/h
67 20-07-2020 05:30:00 15.9 C 11.92 g/m*3 15.9 C 0 km/h
68 20-07-2020 05:35:00 15.8 C 11.98 g/m*3 15.8 C 0 km/h
69 20-07-2020 05:40:00 15.8 C 11.98 g/m*3 15.8 C 0 km/h
70 20-07-2020 05:45:00 15.7 C 11.91 g/m*3 15.7 C 0 km/h
71 20-07-2020 05:50:00 15.7 C 12.04 g/m*3 15.7 C 4.8 km/h
72 20-07-2020 05:55:00 15.8 C 12.25 g/m*3 15.8 C 3.2 km/h
73 20-07-2020 06:00:00 16 C 12.53 g/m*3 16 C 4.8 km/h
74 20-07-2020 06:05:00 16.2 C 12.69 g/m*3 16.2 C 3.2 km/h
75 20-07-2020 06:10:00 16.2 C 12.55 g/m*3 16.2 C 0 km/h
Sensor: Nr:Datum:Temp:Abs-Feuchte:Windchill:Wind:
Aussen-T/F 76 20-07-2020 06:15:00 16.2 C 12.55 g/m*3 16.2 C 3.2 km/h
77 20-07-2020 06:20:00 16.2 C 12.55 g/m*3 16.2 C 3.2 km/h
78 20-07-2020 06:25:00 16.3 C 12.62 g/m*3 16.3 C 3.2 km/h
79 20-07-2020 06:30:00 16.4 C 12.84 g/m*3 16.4 C 3.2 km/h
80 20-07-2020 06:35:00 16.4 C 12.84 g/m*3 16.4 C 3.2 km/h
81 20-07-2020 06:40:00 16.6 C 13 g/m*3 16.6 C 3.2 km/h
82 20-07-2020 06:45:00 16.6 C 13 g/m*3 16.6 C 4.8 km/h
83 20-07-2020 06:50:00 16.7 C 13.07 g/m*3 16.7 C 0 km/h
84 20-07-2020 06:55:00 16.8 C 13.15 g/m*3 16.8 C 1.6 km/h
85 20-07-2020 07:00:00 16.9 C 13.09 g/m*3 16.9 C 4.8 km/h
86 20-07-2020 07:05:00 16.9 C 13.09 g/m*3 16.9 C 0 km/h
87 20-07-2020 07:10:00 17.1 C 13.25 g/m*3 17.1 C 0 km/h
88 20-07-2020 07:15:00 17.1 C 13.25 g/m*3 17.1 C 1.6 km/h
89 20-07-2020 07:20:00 17.2 C 13.33 g/m*3 17.2 C 0 km/h
90 20-07-2020 07:25:00 17.2 C 13.33 g/m*3 17.2 C 0 km/h
91 20-07-2020 07:30:00 17.3 C 13.41 g/m*3 17.3 C 1.6 km/h
92 20-07-2020 07:35:00 17.4 C 13.49 g/m*3 17.4 C 0 km/h
93 20-07-2020 07:40:00 17.6 C 13.5 g/m*3 17.6 C 0 km/h
94 20-07-2020 07:45:00 17.7 C 13.58 g/m*3 17.7 C 0 km/h
95 20-07-2020 07:50:00 17.8 C 13.66 g/m*3 17.8 C 0 km/h
96 20-07-2020 07:55:00 17.8 C 13.51 g/m*3 17.8 C 0 km/h
97 20-07-2020 08:00:00 17.9 C 13.59 g/m*3 17.9 C 0 km/h
98 20-07-2020 08:05:00 17.9 C 13.44 g/m*3 17.9 C 0 km/h
99 20-07-2020 08:10:00 18.1 C 13.6 g/m*3 18.1 C 11.3 km/h
100 20-07-2020 08:15:00 18.1 C 13.44 g/m*3 18.1 C 11.3 km/h
Sensor: Nr:Datum:Temp:Abs-Feuchte:Windchill:Wind:
Aussen-T/F 101 20-07-2020 08:20:00 18.1 C 13.44 g/m*3 18.1 C 11.3 km/h
102 20-07-2020 08:25:00 18.1 C 13.44 g/m*3 18.1 C 6.4 km/h
103 20-07-2020 08:30:00 18.1 C 13.44 g/m*3 18.1 C 8.1 km/h
104 20-07-2020 08:35:00 17.9 C 13.28 g/m*3 17.9 C 4.8 km/h
105 20-07-2020 08:40:00 17.9 C 13.44 g/m*3 17.9 C 8.1 km/h
106 20-07-2020 08:45:00 17.8 C 13.36 g/m*3 17.8 C 8.1 km/h
107 20-07-2020 08:50:00 17.7 C 13.43 g/m*3 17.7 C 6.4 km/h
108 20-07-2020 08:55:00 17.7 C 13.43 g/m*3 17.7 C 3.2 km/h
109 20-07-2020 09:00:00 17.7 C 13.43 g/m*3 17.7 C 4.8 km/h
110 20-07-2020 09:05:00 17.7 C 13.43 g/m*3 17.7 C 4.8 km/h
111 20-07-2020 09:10:00 17.7 C 13.43 g/m*3 17.7 C 3.2 km/h
112 20-07-2020 09:15:00 17.7 C 13.43 g/m*3 17.7 C 1.6 km/h
113 20-07-2020 09:20:00 17.8 C 13.51 g/m*3 17.8 C 9.7 km/h
114 20-07-2020 09:25:00 17.8 C 13.36 g/m*3 17.8 C 8.1 km/h
115 20-07-2020 09:30:00 17.8 C 13.36 g/m*3 17.8 C 6.4 km/h
116 20-07-2020 09:35:00 17.8 C 13.2 g/m*3 17.8 C 9.7 km/h
117 20-07-2020 09:40:00 17.8 C 13.2 g/m*3 17.8 C 4.8 km/h
118 20-07-2020 09:45:00 17.7 C 13.13 g/m*3 17.7 C 6.4 km/h
119 20-07-2020 09:50:00 17.7 C 13.13 g/m*3 17.7 C 1.6 km/h
120 20-07-2020 09:55:00 17.7 C 13.13 g/m*3 17.7 C 0 km/h
121 20-07-2020 10:00:00 17.7 C 13.13 g/m*3 17.7 C 0 km/h
122 20-07-2020 10:05:00 17.7 C 13.13 g/m*3 17.7 C 3.2 km/h
123 20-07-2020 10:10:00 17.7 C 12.98 g/m*3 17.7 C 1.6 km/h
124 20-07-2020 10:15:00 17.7 C 12.98 g/m*3 17.7 C 1.6 km/h
125 20-07-2020 10:20:00 17.8 C 13.05 g/m*3 17.8 C 0 km/h
Sensor: Nr:Datum:Temp:Abs-Feuchte:Windchill:Wind:
Aussen-T/F 126 20-07-2020 10:25:00 17.8 C 13.05 g/m*3 17.8 C 0 km/h
127 20-07-2020 10:30:00 17.8 C 13.05 g/m*3 17.8 C 0 km/h
128 20-07-2020 10:35:00 17.8 C 13.05 g/m*3 17.8 C 1.6 km/h
129 20-07-2020 10:40:00 17.8 C 13.05 g/m*3 17.8 C 1.6 km/h
130 20-07-2020 10:45:00 17.9 C 13.13 g/m*3 17.9 C 4.8 km/h
131 20-07-2020 10:50:00 17.9 C 13.13 g/m*3 17.9 C 1.6 km/h
132 20-07-2020 10:55:00 18.1 C 13.29 g/m*3 18.1 C 1.6 km/h
133 20-07-2020 11:00:00 18.3 C 13.45 g/m*3 18.3 C 0 km/h
134 20-07-2020 11:05:00 18.4 C 13.37 g/m*3 18.4 C 1.6 km/h
135 20-07-2020 11:10:00 18.7 C 13.45 g/m*3 18.7 C 0 km/h
136 20-07-2020 11:15:00 18.9 C 13.45 g/m*3 18.9 C 4.8 km/h
137 20-07-2020 11:20:00 19.1 C 13.44 g/m*3 19.1 C 6.4 km/h
138 20-07-2020 11:25:00 19.1 C 13.44 g/m*3 19.1 C 6.4 km/h
139 20-07-2020 11:30:00 19.2 C 13.03 g/m*3 19.2 C 16.1 km/h
140 20-07-2020 11:35:00 19.3 C 13.1 g/m*3 19.3 C 11.3 km/h
141 20-07-2020 11:40:00 19.5 C 13.09 g/m*3 19.5 C 6.4 km/h
142 20-07-2020 11:45:00 19.7 C 12.91 g/m*3 19.7 C 9.7 km/h
143 20-07-2020 11:50:00 19.8 C 12.81 g/m*3 19.8 C 11.3 km/h
144 20-07-2020 11:55:00 19.8 C 12.81 g/m*3 19.8 C 9.7 km/h
145 20-07-2020 12:00:00 19.8 C 12.81 g/m*3 19.8 C 12.9 km/h
146 20-07-2020 12:05:00 19.7 C 12.91 g/m*3 19.7 C 12.9 km/h
147 20-07-2020 12:10:00 19.8 C 12.98 g/m*3 19.8 C 12.9 km/h
148 20-07-2020 12:15:00 20 C 12.96 g/m*3 20 C 14.5 km/h
149 20-07-2020 12:20:00 20.1 C 12.69 g/m*3 20.1 C 8.1 km/h
150 20-07-2020 12:25:00 20.1 C 12.86 g/m*3 20.1 C 9.7 km/h
Sensor: Nr:Datum:Temp:Abs-Feuchte:Windchill:Wind:
Aussen-T/F 151 20-07-2020 12:30:00 20.2 C 12.94 g/m*3 20.2 C 8.1 km/h
152 20-07-2020 12:35:00 20.1 C 12.69 g/m*3 20.1 C 12.9 km/h
153 20-07-2020 12:40:00 20 C 12.79 g/m*3 20 C 14.5 km/h
154 20-07-2020 12:45:00 20 C 12.79 g/m*3 20 C 8.1 km/h
155 20-07-2020 12:50:00 20.1 C 12.86 g/m*3 20.1 C 11.3 km/h
156 20-07-2020 12:55:00 20.3 C 12.84 g/m*3 20.3 C 11.3 km/h
157 20-07-2020 13:00:00 20.4 C 12.91 g/m*3 20.4 C 8.1 km/h
158 20-07-2020 13:05:00 20.4 C 12.38 g/m*3 20.4 C 9.7 km/h
159 20-07-2020 13:10:00 20.7 C 12.96 g/m*3 20.7 C 6.4 km/h
160 20-07-2020 13:15:00 20.8 C 12.86 g/m*3 20.8 C 8.1 km/h
161 20-07-2020 13:20:00 20.9 C 12.93 g/m*3 20.9 C 9.7 km/h
162 20-07-2020 13:25:00 20.9 C 12.75 g/m*3 20.9 C 9.7 km/h
163 20-07-2020 13:30:00 21 C 12.64 g/m*3 21 C 8.1 km/h
164 20-07-2020 13:35:00 21.1 C 12.71 g/m*3 21.1 C 11.3 km/h
165 20-07-2020 13:40:00 21.2 C 12.79 g/m*3 21.2 C 11.3 km/h
166 20-07-2020 13:45:00 21.3 C 12.86 g/m*3 21.3 C 11.3 km/h
167 20-07-2020 13:50:00 21.4 C 12.75 g/m*3 21.4 C 9.7 km/h
168 20-07-2020 13:55:00 21.6 C 12.71 g/m*3 21.6 C 9.7 km/h
169 20-07-2020 14:00:00 21.7 C 12.78 g/m*3 21.7 C 14.5 km/h
170 20-07-2020 14:05:00 21.7 C 12.78 g/m*3 21.7 C 11.3 km/h
171 20-07-2020 14:10:00 21.6 C 12.52 g/m*3 21.6 C 14.5 km/h
172 20-07-2020 14:15:00 21.5 C 12.63 g/m*3 21.5 C 11.3 km/h
173 20-07-2020 14:20:00 21.6 C 12.71 g/m*3 21.6 C 8.1 km/h
174 20-07-2020 14:25:00 21.6 C 12.71 g/m*3 21.6 C 14.5 km/h
175 20-07-2020 14:30:00 21.6 C 12.71 g/m*3 21.6 C 12.9 km/h
Sensor: Nr:Datum:Temp:Abs-Feuchte:Windchill:Wind:
Aussen-T/F 176 20-07-2020 14:35:00 21.7 C 12.59 g/m*3 21.7 C 14.5 km/h
177 20-07-2020 14:40:00 21.6 C 12.52 g/m*3 21.6 C 11.3 km/h
178 20-07-2020 14:45:00 21.7 C 12.59 g/m*3 21.7 C 9.7 km/h
179 20-07-2020 14:50:00 21.8 C 12.47 g/m*3 21.8 C 11.3 km/h
180 20-07-2020 14:55:00 21.8 C 12.47 g/m*3 21.8 C 11.3 km/h
181 20-07-2020 15:00:00 21.9 C 12.35 g/m*3 21.9 C 12.9 km/h
182 20-07-2020 15:05:00 22 C 12.81 g/m*3 22 C 9.7 km/h
183 20-07-2020 15:10:00 22.3 C 12.64 g/m*3 22.3 C 8.1 km/h
184 20-07-2020 15:15:00 22.6 C 12.66 g/m*3 22.6 C 12.9 km/h
185 20-07-2020 15:20:00 22.6 C 12.46 g/m*3 22.6 C 9.7 km/h
186 20-07-2020 15:25:00 22.5 C 12.58 g/m*3 22.5 C 9.7 km/h
187 20-07-2020 15:30:00 22.6 C 12.25 g/m*3 22.6 C 11.3 km/h
188 20-07-2020 15:35:00 22.8 C 12.6 g/m*3 22.8 C 12.9 km/h
189 20-07-2020 15:40:00 23.1 C 12.2 g/m*3 23.1 C 12.9 km/h
190 20-07-2020 15:45:00 22.9 C 12.26 g/m*3 22.9 C 16.1 km/h
191 20-07-2020 15:50:00 22.7 C 12.12 g/m*3 22.7 C 12.9 km/h
192 20-07-2020 15:55:00 22.4 C 12.11 g/m*3 22.4 C 12.9 km/h
193 20-07-2020 16:00:00 22.6 C 12.46 g/m*3 22.6 C 12.9 km/h
194 20-07-2020 16:05:00 22.5 C 12.38 g/m*3 22.5 C 16.1 km/h
195 20-07-2020 16:10:00 22.8 C 12.6 g/m*3 22.8 C 9.7 km/h
196 20-07-2020 16:15:00 23.4 C 12.41 g/m*3 23.4 C 9.7 km/h
197 20-07-2020 16:20:00 23.4 C 12.41 g/m*3 23.4 C 8.1 km/h
198 20-07-2020 16:25:00 23.7 C 12.19 g/m*3 23.7 C 12.9 km/h
199 20-07-2020 16:30:00 23.7 C 12.19 g/m*3 23.7 C 9.7 km/h
200 20-07-2020 16:35:00 23.6 C 12.34 g/m*3 23.6 C 11.3 km/h
Sensor: Nr:Datum:Temp:Abs-Feuchte:Windchill:Wind:
Aussen-T/F 201 20-07-2020 16:40:00 23.4 C 11.99 g/m*3 23.4 C 11.3 km/h
202 20-07-2020 16:45:00 23.1 C 11.99 g/m*3 23.1 C 9.7 km/h
203 20-07-2020 16:50:00 23.3 C 12.13 g/m*3 23.3 C 12.9 km/h
204 20-07-2020 16:55:00 23.6 C 12.34 g/m*3 23.6 C 17.7 km/h
205 20-07-2020 17:00:00 23.8 C 11.83 g/m*3 23.8 C 17.7 km/h
206 20-07-2020 17:05:00 23.6 C 11.7 g/m*3 23.6 C 19.3 km/h
207 20-07-2020 17:10:00 23.3 C 11.92 g/m*3 23.3 C 14.5 km/h
208 20-07-2020 17:15:00 23.3 C 11.92 g/m*3 23.3 C 12.9 km/h
209 20-07-2020 17:20:00 23.5 C 11.84 g/m*3 23.5 C 9.7 km/h
210 20-07-2020 17:25:00 23.8 C 11.83 g/m*3 23.8 C 12.9 km/h
211 20-07-2020 17:30:00 24 C 11.75 g/m*3 24 C 9.7 km/h
212 20-07-2020 17:35:00 24.2 C 11.88 g/m*3 24.2 C 9.7 km/h
213 20-07-2020 17:40:00 24.3 C 11.73 g/m*3 24.3 C 11.3 km/h
214 20-07-2020 17:45:00 24.3 C 11.73 g/m*3 24.3 C 12.9 km/h
215 20-07-2020 17:50:00 24.4 C 11.79 g/m*3 24.4 C 8.1 km/h
216 20-07-2020 17:55:00 24.6 C 11.93 g/m*3 24.6 C 11.3 km/h
217 20-07-2020 18:00:00 24.6 C 11.7 g/m*3 24.6 C 14.5 km/h
218 20-07-2020 18:05:00 24.3 C 11.95 g/m*3 24.3 C 12.9 km/h
219 20-07-2020 18:10:00 24.3 C 11.73 g/m*3 24.3 C 9.7 km/h
220 20-07-2020 18:15:00 24.2 C 11.44 g/m*3 24.2 C 12.9 km/h
221 20-07-2020 18:20:00 23.9 C 11.25 g/m*3 23.9 C 17.7 km/h
222 20-07-2020 18:25:00 23.6 C 11.27 g/m*3 23.6 C 14.5 km/h
223 20-07-2020 18:30:00 23.4 C 11.35 g/m*3 23.4 C 12.9 km/h
224 20-07-2020 18:35:00 23.5 C 11.21 g/m*3 23.5 C 11.3 km/h
225 20-07-2020 18:40:00 23.7 C 11.34 g/m*3 23.7 C 9.7 km/h
Sensor: Nr:Datum:Temp:Abs-Feuchte:Windchill:Wind:
Aussen-T/F 226 20-07-2020 18:45:00 23.7 C 11.12 g/m*3 23.7 C 14.5 km/h
227 20-07-2020 18:50:00 23.4 C 10.93 g/m*3 23.4 C 16.1 km/h
228 20-07-2020 18:55:00 23.4 C 10.93 g/m*3 23.4 C 9.7 km/h
229 20-07-2020 19:00:00 23.6 C 11.06 g/m*3 23.6 C 12.9 km/h
230 20-07-2020 19:05:00 23.4 C 10.72 g/m*3 23.4 C 8.1 km/h
231 20-07-2020 19:10:00 23.3 C 11.08 g/m*3 23.3 C 8.1 km/h
232 20-07-2020 19:15:00 23.1 C 10.96 g/m*3 23.1 C 14.5 km/h
233 20-07-2020 19:20:00 22.8 C 10.97 g/m*3 22.8 C 11.3 km/h
234 20-07-2020 19:25:00 22.6 C 10.85 g/m*3 22.6 C 11.3 km/h
235 20-07-2020 19:30:00 22.5 C 10.79 g/m*3 22.5 C 12.9 km/h
236 20-07-2020 19:35:00 22.3 C 10.66 g/m*3 22.3 C 11.3 km/h
237 20-07-2020 19:40:00 22.1 C 10.54 g/m*3 22.1 C 14.5 km/h
238 20-07-2020 19:45:00 22 C 10.67 g/m*3 22 C 11.3 km/h
239 20-07-2020 19:50:00 21.9 C 10.61 g/m*3 21.9 C 8.1 km/h
240 20-07-2020 19:55:00 21.9 C 10.61 g/m*3 21.9 C 6.4 km/h
241 20-07-2020 20:00:00 21.9 C 10.42 g/m*3 21.9 C 8.1 km/h
242 20-07-2020 20:05:00 21.9 C 10.42 g/m*3 21.9 C 9.7 km/h
243 20-07-2020 20:10:00 21.8 C 10.36 g/m*3 21.8 C 11.3 km/h
244 20-07-2020 20:15:00 21.7 C 10.3 g/m*3 21.7 C 9.7 km/h
245 20-07-2020 20:20:00 21.5 C 9.99 g/m*3 21.5 C 8.1 km/h
246 20-07-2020 20:25:00 21.3 C 9.88 g/m*3 21.3 C 12.9 km/h
247 20-07-2020 20:30:00 21.3 C 10.07 g/m*3 21.3 C 11.3 km/h
248 20-07-2020 20:35:00 21.3 C 9.88 g/m*3 21.3 C 6.4 km/h
249 20-07-2020 20:40:00 21.2 C 10.01 g/m*3 21.2 C 4.8 km/h
250 20-07-2020 20:45:00 21.1 C 10.13 g/m*3 21.1 C 8.1 km/h
Sensor: Nr:Datum:Temp:Abs-Feuchte:Windchill:Wind:
Aussen-T/F 251 20-07-2020 20:50:00 21 C 9.89 g/m*3 21 C 8.1 km/h
252 20-07-2020 20:55:00 20.9 C 9.83 g/m*3 20.9 C 6.4 km/h
253 20-07-2020 21:00:00 20.9 C 9.83 g/m*3 20.9 C 3.2 km/h
254 20-07-2020 21:05:00 20.8 C 9.96 g/m*3 20.8 C 4.8 km/h
255 20-07-2020 21:10:00 20.7 C 9.9 g/m*3 20.7 C 1.6 km/h
256 20-07-2020 21:15:00 20.6 C 10.56 g/m*3 20.6 C 0 km/h
257 20-07-2020 21:20:00 20.4 C 10.44 g/m*3 20.4 C 0 km/h
258 20-07-2020 21:25:00 20.1 C 10.08 g/m*3 20.1 C 1.6 km/h
259 20-07-2020 21:30:00 19.8 C 10.42 g/m*3 19.8 C 0 km/h
260 20-07-2020 21:35:00 19.4 C 10.18 g/m*3 19.4 C 3.2 km/h
261 20-07-2020 21:40:00 19.1 C 10 g/m*3 19.1 C 1.6 km/h
262 20-07-2020 21:45:00 18.8 C 9.99 g/m*3 18.8 C 0 km/h
263 20-07-2020 21:50:00 18.4 C 9.91 g/m*3 18.4 C 0 km/h
264 20-07-2020 21:55:00 18.2 C 9.95 g/m*3 18.2 C 0 km/h
265 20-07-2020 22:00:00 17.9 C 9.92 g/m*3 17.9 C 0 km/h
266 20-07-2020 22:05:00 17.7 C 9.96 g/m*3 17.7 C 0 km/h
267 20-07-2020 22:10:00 17.6 C 9.9 g/m*3 17.6 C 4.8 km/h
268 20-07-2020 22:15:00 17.3 C 9.72 g/m*3 17.3 C 4.8 km/h
269 20-07-2020 22:20:00 17.2 C 9.81 g/m*3 17.2 C 3.2 km/h
270 20-07-2020 22:25:00 17.1 C 9.9 g/m*3 17.1 C 4.8 km/h
271 20-07-2020 22:30:00 17.1 C 9.9 g/m*3 17.1 C 3.2 km/h
272 20-07-2020 22:35:00 17 C 9.98 g/m*3 17 C 4.8 km/h
273 20-07-2020 22:40:00 17 C 10.13 g/m*3 17 C 4.8 km/h
274 20-07-2020 22:45:00 17 C 10.13 g/m*3 17 C 3.2 km/h
275 20-07-2020 22:50:00 17 C 10.27 g/m*3 17 C 3.2 km/h
Sensor: Nr:Datum:Temp:Abs-Feuchte:Windchill:Wind:
Aussen-T/F 276 20-07-2020 22:55:00 17 C 10.42 g/m*3 17 C 1.6 km/h
277 20-07-2020 23:00:00 17 C 10.42 g/m*3 17 C 0 km/h
278 20-07-2020 23:05:00 16.9 C 10.36 g/m*3 16.9 C 0 km/h
279 20-07-2020 23:10:00 16.8 C 10.15 g/m*3 16.8 C 0 km/h
280 20-07-2020 23:15:00 16.6 C 10.03 g/m*3 16.6 C 0 km/h
281 20-07-2020 23:20:00 16.3 C 9.99 g/m*3 16.3 C 0 km/h
282 20-07-2020 23:25:00 16.2 C 9.93 g/m*3 16.2 C 0 km/h
283 20-07-2020 23:30:00 16 C 9.95 g/m*3 16 C 0 km/h
284 20-07-2020 23:35:00 15.8 C 9.83 g/m*3 15.8 C 0 km/h
285 20-07-2020 23:40:00 15.6 C 9.97 g/m*3 15.6 C 0 km/h
286 20-07-2020 23:45:00 15.4 C 9.72 g/m*3 15.4 C 4.8 km/h
287 20-07-2020 23:50:00 15.3 C 9.66 g/m*3 15.3 C 4.8 km/h
288 20-07-2020 23:55:00 15.1 C 9.55 g/m*3 15.1 C 1.6 km/h
289 21-07-2020 00:00:00 15.1 C 9.68 g/m*3 15.1 C 1.6 km/h
290 21-07-2020 00:05:00 15 C 9.62 g/m*3 15 C 0 km/h
291 21-07-2020 00:10:00 14.9 C 9.56 g/m*3 14.9 C 4.8 km/h
292 21-07-2020 00:15:00 14.8 C 9.63 g/m*3 14.8 C 4.8 km/h
293 21-07-2020 00:20:00 14.8 C 9.5 g/m*3 14.8 C 4.8 km/h
294 21-07-2020 00:25:00 14.8 C 9.5 g/m*3 14.8 C 4.8 km/h
295 21-07-2020 00:30:00 14.8 C 9.63 g/m*3 14.8 C 1.6 km/h
296 21-07-2020 00:35:00 14.7 C 9.44 g/m*3 14.7 C 4.8 km/h
297 21-07-2020 00:40:00 14.7 C 9.57 g/m*3 14.7 C 3.2 km/h
298 21-07-2020 00:45:00 14.6 C 9.51 g/m*3 14.6 C 4.8 km/h
299 21-07-2020 00:50:00 14.5 C 9.45 g/m*3 14.5 C 4.8 km/h
300 21-07-2020 00:55:00 14.3 C 9.34 g/m*3 14.3 C 0 km/h
Sensor: Nr:Datum:Temp:Abs-Feuchte:Windchill:Wind:
Aussen-T/F 301 21-07-2020 01:00:00 14.2 C 9.4 g/m*3 14.2 C 3.2 km/h
302 21-07-2020 01:05:00 14.1 C 9.47 g/m*3 14.1 C 3.2 km/h
303 21-07-2020 01:10:00 14 C 9.41 g/m*3 14 C 0 km/h
304 21-07-2020 01:15:00 13.9 C 9.35 g/m*3 13.9 C 0 km/h
305 21-07-2020 01:20:00 13.7 C 9.35 g/m*3 13.7 C 0 km/h
306 21-07-2020 01:25:00 13.6 C 9.3 g/m*3 13.6 C 0 km/h
307 21-07-2020 01:30:00 13.4 C 9.3 g/m*3 13.4 C 4.8 km/h
308 21-07-2020 01:35:00 13.3 C 9.24 g/m*3 13.3 C 4.8 km/h
309 21-07-2020 01:40:00 13.2 C 9.19 g/m*3 13.2 C 1.6 km/h
310 21-07-2020 01:45:00 13.2 C 9.19 g/m*3 13.2 C 0 km/h
311 21-07-2020 01:50:00 13.2 C 9.19 g/m*3 13.2 C 3.2 km/h
312 21-07-2020 01:55:00 13.2 C 9.19 g/m*3 13.2 C 6.4 km/h
313 21-07-2020 02:00:00 13.3 C 9.24 g/m*3 13.3 C 1.6 km/h
314 21-07-2020 02:05:00 13.3 C 9.13 g/m*3 13.3 C 1.6 km/h
315 21-07-2020 02:10:00 13.3 C 9.13 g/m*3 13.3 C 0 km/h
316 21-07-2020 02:15:00 13.4 C 9.18 g/m*3 13.4 C 1.6 km/h
317 21-07-2020 02:20:00 13.4 C 9.18 g/m*3 13.4 C 4.8 km/h
318 21-07-2020 02:25:00 13.6 C 9.3 g/m*3 13.6 C 0 km/h
319 21-07-2020 02:30:00 13.6 C 9.18 g/m*3 13.6 C 4.8 km/h
320 21-07-2020 02:35:00 13.6 C 9.18 g/m*3 13.6 C 4.8 km/h
321 21-07-2020 02:40:00 13.6 C 9.18 g/m*3 13.6 C 4.8 km/h
322 21-07-2020 02:45:00 13.6 C 9.18 g/m*3 13.6 C 6.4 km/h
323 21-07-2020 02:50:00 13.4 C 9.07 g/m*3 13.4 C 4.8 km/h
324 21-07-2020 02:55:00 13.4 C 9.18 g/m*3 13.4 C 4.8 km/h
325 21-07-2020 03:00:00 13.3 C 9.13 g/m*3 13.3 C 1.6 km/h
Sensor: Nr:Datum:Temp:Abs-Feuchte:Windchill:Wind:
Aussen-T/F 326 21-07-2020 03:05:00 13.2 C 9.07 g/m*3 13.2 C 6.4 km/h
327 21-07-2020 03:10:00 13.2 C 9.19 g/m*3 13.2 C 3.2 km/h
328 21-07-2020 03:15:00 13.2 C 9.19 g/m*3 13.2 C 0 km/h
329 21-07-2020 03:20:00 13.2 C 9.19 g/m*3 13.2 C 4.8 km/h
330 21-07-2020 03:25:00 13.2 C 9.19 g/m*3 13.2 C 4.8 km/h
331 21-07-2020 03:30:00 13.2 C 9.19 g/m*3 13.2 C 1.6 km/h
332 21-07-2020 03:35:00 13.2 C 9.19 g/m*3 13.2 C 0 km/h
333 21-07-2020 03:40:00 13.1 C 9.13 g/m*3 13.1 C 6.4 km/h
334 21-07-2020 03:45:00 13.1 C 9.13 g/m*3 13.1 C 6.4 km/h
335 21-07-2020 03:50:00 13.1 C 9.24 g/m*3 13.1 C 1.6 km/h
336 21-07-2020 03:55:00 12.9 C 9.13 g/m*3 12.9 C 4.8 km/h
337 21-07-2020 04:00:00 12.9 C 9.13 g/m*3 12.9 C 1.6 km/h
338 21-07-2020 04:05:00 12.8 C 9.07 g/m*3 12.8 C 3.2 km/h
339 21-07-2020 04:10:00 12.8 C 9.18 g/m*3 12.8 C 0 km/h
340 21-07-2020 04:15:00 12.8 C 9.07 g/m*3 12.8 C 3.2 km/h
341 21-07-2020 04:20:00 12.9 C 9.13 g/m*3 12.9 C 0 km/h
342 21-07-2020 04:25:00 12.8 C 9.07 g/m*3 12.8 C 1.6 km/h
343 21-07-2020 04:30:00 12.8 C 9.07 g/m*3 12.8 C 0 km/h
344 21-07-2020 04:35:00 12.8 C 9.07 g/m*3 12.8 C 4.8 km/h
345 21-07-2020 04:40:00 12.8 C 9.07 g/m*3 12.8 C 0 km/h
346 21-07-2020 04:45:00 12.8 C 9.07 g/m*3 12.8 C 0 km/h
347 21-07-2020 04:50:00 12.8 C 9.07 g/m*3 12.8 C 3.2 km/h
348 21-07-2020 04:55:00 12.8 C 9.07 g/m*3 12.8 C 0 km/h
349 21-07-2020 05:00:00 12.8 C 9.07 g/m*3 12.8 C 1.6 km/h
350 21-07-2020 05:05:00 12.8 C 9.07 g/m*3 12.8 C 1.6 km/h
Sensor: Nr:Datum:Temp:Abs-Feuchte:Windchill:Wind:
Aussen-T/F 351 21-07-2020 05:10:00 12.8 C 9.07 g/m*3 12.8 C 3.2 km/h
352 21-07-2020 05:15:00 12.7 C 9.02 g/m*3 12.7 C 3.2 km/h
353 21-07-2020 05:20:00 12.7 C 9.02 g/m*3 12.7 C 4.8 km/h
354 21-07-2020 05:25:00 12.6 C 8.96 g/m*3 12.6 C 4.8 km/h
355 21-07-2020 05:30:00 12.6 C 8.96 g/m*3 12.6 C 4.8 km/h
356 21-07-2020 05:35:00 12.7 C 9.02 g/m*3 12.7 C 4.8 km/h
357 21-07-2020 05:40:00 12.7 C 9.02 g/m*3 12.7 C 1.6 km/h
358 21-07-2020 05:45:00 12.6 C 8.96 g/m*3 12.6 C 0 km/h
359 21-07-2020 05:50:00 12.5 C 8.91 g/m*3 12.5 C 0 km/h
360 21-07-2020 05:55:00 12.4 C 8.85 g/m*3 12.4 C 3.2 km/h
361 21-07-2020 06:00:00 12.2 C 8.85 g/m*3 12.2 C 4.8 km/h
362 21-07-2020 06:05:00 12.1 C 8.79 g/m*3 12.1 C 1.6 km/h
363 21-07-2020 06:10:00 11.9 C 8.79 g/m*3 11.9 C 1.6 km/h
364 21-07-2020 06:15:00 11.8 C 8.74 g/m*3 11.8 C 1.6 km/h
365 21-07-2020 06:20:00 11.7 C 8.79 g/m*3 11.7 C 1.6 km/h
366 21-07-2020 06:25:00 11.6 C 8.73 g/m*3 11.6 C 0 km/h
367 21-07-2020 06:30:00 11.5 C 8.68 g/m*3 11.5 C 4.8 km/h
368 21-07-2020 06:35:00 11.4 C 8.72 g/m*3 11.4 C 0 km/h
369 21-07-2020 06:40:00 11.4 C 8.72 g/m*3 11.4 C 3.2 km/h
370 21-07-2020 06:45:00 11.3 C 8.67 g/m*3 11.3 C 3.2 km/h
371 21-07-2020 06:50:00 11.3 C 8.77 g/m*3 11.3 C 3.2 km/h
372 21-07-2020 06:55:00 11.3 C 8.77 g/m*3 11.3 C 3.2 km/h
373 21-07-2020 07:00:00 11.3 C 8.77 g/m*3 11.3 C 0 km/h
374 21-07-2020 07:05:00 11.4 C 8.83 g/m*3 11.4 C 4.8 km/h
375 21-07-2020 07:10:00 11.5 C 8.88 g/m*3 11.5 C 0 km/h
Sensor: Nr:Datum:Temp:Abs-Feuchte:Windchill:Wind:
Aussen-T/F 376 21-07-2020 07:15:00 11.6 C 8.94 g/m*3 11.6 C 3.2 km/h
377 21-07-2020 07:20:00 11.6 C 8.94 g/m*3 11.6 C 3.2 km/h
378 21-07-2020 07:25:00 11.7 C 8.99 g/m*3 11.7 C 1.6 km/h
379 21-07-2020 07:30:00 11.7 C 8.99 g/m*3 11.7 C 1.6 km/h
380 21-07-2020 07:35:00 11.7 C 8.99 g/m*3 11.7 C 1.6 km/h
381 21-07-2020 07:40:00 11.7 C 8.99 g/m*3 11.7 C 6.4 km/h
382 21-07-2020 07:45:00 11.8 C 9.16 g/m*3 11.8 C 0 km/h
383 21-07-2020 07:50:00 11.9 C 9.11 g/m*3 11.9 C 4.8 km/h
384 21-07-2020 07:55:00 12.2 C 9.28 g/m*3 12.2 C 4.8 km/h
385 21-07-2020 08:00:00 12.4 C 9.18 g/m*3 12.4 C 1.6 km/h
386 21-07-2020 08:05:00 12.6 C 9.29 g/m*3 12.6 C 3.2 km/h
387 21-07-2020 08:10:00 12.8 C 9.41 g/m*3 12.8 C 1.6 km/h
388 21-07-2020 08:15:00 12.9 C 9.35 g/m*3 12.9 C 6.4 km/h
389 21-07-2020 08:20:00 13.1 C 9.36 g/m*3 13.1 C 4.8 km/h
390 21-07-2020 08:25:00 13.4 C 9.42 g/m*3 13.4 C 6.4 km/h
391 21-07-2020 08:30:00 13.7 C 9.47 g/m*3 13.7 C 6.4 km/h
392 21-07-2020 08:35:00 13.8 C 9.53 g/m*3 13.8 C 1.6 km/h
393 21-07-2020 08:40:00 13.9 C 9.59 g/m*3 13.9 C 4.8 km/h
394 21-07-2020 08:45:00 13.9 C 9.47 g/m*3 13.9 C 1.6 km/h
395 21-07-2020 08:50:00 14 C 9.53 g/m*3 14 C 0 km/h
396 21-07-2020 08:55:00 14.1 C 9.71 g/m*3 14.1 C 0 km/h
397 21-07-2020 09:00:00 14.1 C 9.71 g/m*3 14.1 C 3.2 km/h
398 21-07-2020 09:05:00 14.2 C 9.65 g/m*3 14.2 C 4.8 km/h
399 21-07-2020 09:10:00 14.4 C 9.77 g/m*3 14.4 C 6.4 km/h
400 21-07-2020 09:15:00 14.6 C 9.89 g/m*3 14.6 C 6.4 km/h
Sensor: Nr:Datum:Temp:Abs-Feuchte:Windchill:Wind:
Aussen-T/F 401 21-07-2020 09:20:00 14.6 C 9.89 g/m*3 14.6 C 0 km/h
402 21-07-2020 09:25:00 14.7 C 9.95 g/m*3 14.7 C 0 km/h
403 21-07-2020 09:30:00 14.8 C 10.01 g/m*3 14.8 C 3.2 km/h
404 21-07-2020 09:35:00 14.9 C 9.94 g/m*3 14.9 C 4.8 km/h
405 21-07-2020 09:40:00 15.2 C 9.99 g/m*3 15.2 C 3.2 km/h
406 21-07-2020 09:45:00 15.4 C 10.12 g/m*3 15.4 C 4.8 km/h
407 21-07-2020 09:50:00 15.6 C 9.97 g/m*3 15.6 C 6.4 km/h
408 21-07-2020 09:55:00 15.8 C 10.1 g/m*3 15.8 C 6.4 km/h
409 21-07-2020 10:00:00 16.1 C 10.14 g/m*3 16.1 C 8.1 km/h
410 21-07-2020 10:05:00 16.3 C 10.13 g/m*3 16.3 C 8.1 km/h
411 21-07-2020 10:10:00 16.4 C 10.33 g/m*3 16.4 C 3.2 km/h
412 21-07-2020 10:15:00 16.6 C 10.17 g/m*3 16.6 C 4.8 km/h
413 21-07-2020 10:20:00 16.8 C 10.29 g/m*3 16.8 C 6.4 km/h
414 21-07-2020 10:25:00 17.1 C 10.34 g/m*3 17.1 C 4.8 km/h
415 21-07-2020 10:30:00 17.3 C 10.46 g/m*3 17.3 C 4.8 km/h
416 21-07-2020 10:35:00 17.7 C 10.41 g/m*3 17.7 C 6.4 km/h
417 21-07-2020 10:40:00 17.8 C 10.32 g/m*3 17.8 C 1.6 km/h
418 21-07-2020 10:45:00 18 C 10.29 g/m*3 18 C 6.4 km/h
419 21-07-2020 10:50:00 18.2 C 10.26 g/m*3 18.2 C 4.8 km/h
420 21-07-2020 10:55:00 18.4 C 10.38 g/m*3 18.4 C 4.8 km/h
421 21-07-2020 11:00:00 18.7 C 10.25 g/m*3 18.7 C 9.7 km/h
422 21-07-2020 11:05:00 19 C 10.27 g/m*3 19 C 11.3 km/h
423 21-07-2020 11:10:00 19.2 C 10.06 g/m*3 19.2 C 12.9 km/h
424 21-07-2020 11:15:00 19.2 C 9.89 g/m*3 19.2 C 4.8 km/h
425 21-07-2020 11:20:00 19.1 C 10.16 g/m*3 19.1 C 9.7 km/h
Sensor: Nr:Datum:Temp:Abs-Feuchte:Windchill:Wind:
Aussen-T/F 426 21-07-2020 11:25:00 19.2 C 9.89 g/m*3 19.2 C 9.7 km/h
427 21-07-2020 11:30:00 19.4 C 9.84 g/m*3 19.4 C 16.1 km/h
428 21-07-2020 11:35:00 19.5 C 9.73 g/m*3 19.5 C 16.1 km/h
429 21-07-2020 11:40:00 19.5 C 9.4 g/m*3 19.5 C 16.1 km/h
430 21-07-2020 11:45:00 19.6 C 9.28 g/m*3 19.6 C 8.1 km/h
431 21-07-2020 11:50:00 19.7 C 9.51 g/m*3 19.7 C 8.1 km/h
432 21-07-2020 11:55:00 19.8 C 9.22 g/m*3 19.8 C 9.7 km/h
433 21-07-2020 12:00:00 19.9 C 9.79 g/m*3 19.9 C 14.5 km/h
434 21-07-2020 12:05:00 20.1 C 9.91 g/m*3 20.1 C 9.7 km/h
435 21-07-2020 12:10:00 20.1 C 9.73 g/m*3 20.1 C 12.9 km/h
436 21-07-2020 12:15:00 20.1 C 9.73 g/m*3 20.1 C 11.3 km/h
437 21-07-2020 12:20:00 20.3 C 9.67 g/m*3 20.3 C 8.1 km/h
438 21-07-2020 12:25:00 20.3 C 9.85 g/m*3 20.3 C 9.7 km/h
439 21-07-2020 12:30:00 20.4 C 9.91 g/m*3 20.4 C 11.3 km/h
440 21-07-2020 12:35:00 20.4 C 9.73 g/m*3 20.4 C 14.5 km/h
441 21-07-2020 12:40:00 20.4 C 9.91 g/m*3 20.4 C 9.7 km/h
442 21-07-2020 12:45:00 20.5 C 9.61 g/m*3 20.5 C 6.4 km/h
443 21-07-2020 12:50:00 20.4 C 9.2 g/m*3 20.4 C 19.3 km/h
444 21-07-2020 12:55:00 20.3 C 9.32 g/m*3 20.3 C 12.9 km/h
445 21-07-2020 13:00:00 20.3 C 8.97 g/m*3 20.3 C 11.3 km/h
446 21-07-2020 13:05:00 20.3 C 8.97 g/m*3 20.3 C 8.1 km/h
447 21-07-2020 13:10:00 20.3 C 8.79 g/m*3 20.3 C 12.9 km/h
448 21-07-2020 13:15:00 20.4 C 9.02 g/m*3 20.4 C 8.1 km/h
449 21-07-2020 13:20:00 20.6 C 8.95 g/m*3 20.6 C 16.1 km/h
450 21-07-2020 13:25:00 20.8 C 8.87 g/m*3 20.8 C 11.3 km/h
Sensor: Nr:Datum:Temp:Abs-Feuchte:Windchill:Wind:
Aussen-T/F 451 21-07-2020 13:30:00 20.8 C 8.87 g/m*3 20.8 C 8.1 km/h
452 21-07-2020 13:35:00 20.9 C 9.11 g/m*3 20.9 C 17.7 km/h
453 21-07-2020 13:40:00 20.8 C 9.05 g/m*3 20.8 C 16.1 km/h
454 21-07-2020 13:45:00 21 C 8.98 g/m*3 21 C 14.5 km/h
455 21-07-2020 13:50:00 21 C 8.98 g/m*3 21 C 9.7 km/h
456 21-07-2020 13:55:00 21 C 8.43 g/m*3 21 C 12.9 km/h
457 21-07-2020 14:00:00 21 C 8.79 g/m*3 21 C 8.1 km/h
458 21-07-2020 14:05:00 21.1 C 8.66 g/m*3 21.1 C 14.5 km/h
459 21-07-2020 14:10:00 21.2 C 8.71 g/m*3 21.2 C 9.7 km/h
460 21-07-2020 14:15:00 21.2 C 8.9 g/m*3 21.2 C 14.5 km/h
461 21-07-2020 14:20:00 21.4 C 8.62 g/m*3 21.4 C 16.1 km/h
462 21-07-2020 14:25:00 21.3 C 8.39 g/m*3 21.3 C 9.7 km/h
463 21-07-2020 14:30:00 21.3 C 8.76 g/m*3 21.3 C 6.4 km/h
464 21-07-2020 14:35:00 21.5 C 8.67 g/m*3 21.5 C 17.7 km/h
465 21-07-2020 14:40:00 21.8 C 8.63 g/m*3 21.8 C 14.5 km/h
466 21-07-2020 14:45:00 21.9 C 9.07 g/m*3 21.9 C 11.3 km/h
467 21-07-2020 14:50:00 22.2 C 9.23 g/m*3 22.2 C 16.1 km/h
468 21-07-2020 14:55:00 22.3 C 8.69 g/m*3 22.3 C 12.9 km/h
469 21-07-2020 15:00:00 22.4 C 8.74 g/m*3 22.4 C 12.9 km/h
470 21-07-2020 15:05:00 22.5 C 8.79 g/m*3 22.5 C 16.1 km/h
471 21-07-2020 15:10:00 22.7 C 8.89 g/m*3 22.7 C 12.9 km/h
472 21-07-2020 15:15:00 22.9 C 8.99 g/m*3 22.9 C 11.3 km/h
473 21-07-2020 15:20:00 23.1 C 8.89 g/m*3 23.1 C 16.1 km/h
474 21-07-2020 15:25:00 23.1 C 8.89 g/m*3 23.1 C 14.5 km/h
475 21-07-2020 15:30:00 22.9 C 8.58 g/m*3 22.9 C 12.9 km/h
Sensor: Nr:Datum:Temp:Abs-Feuchte:Windchill:Wind:
Aussen-T/F 476 21-07-2020 15:35:00 22.9 C 8.38 g/m*3 22.9 C 14.5 km/h
477 21-07-2020 15:40:00 22.9 C 8.79 g/m*3 22.9 C 9.7 km/h
478 21-07-2020 15:45:00 23.3 C 8.78 g/m*3 23.3 C 17.7 km/h
479 21-07-2020 15:50:00 23.6 C 8.72 g/m*3 23.6 C 11.3 km/h
480 21-07-2020 15:55:00 23.9 C 9.09 g/m*3 23.9 C 16.1 km/h
481 21-07-2020 16:00:00 23.8 C 8.82 g/m*3 23.8 C 16.1 km/h
482 21-07-2020 16:05:00 24.1 C 8.75 g/m*3 24.1 C 9.7 km/h
483 21-07-2020 16:10:00 24.2 C 8.8 g/m*3 24.2 C 12.9 km/h
484 21-07-2020 16:15:00 24.2 C 9.02 g/m*3 24.2 C 12.9 km/h
485 21-07-2020 16:20:00 24.3 C 8.85 g/m*3 24.3 C 14.5 km/h
486 21-07-2020 16:25:00 24.4 C 8.68 g/m*3 24.4 C 14.5 km/h
487 21-07-2020 16:30:00 24.4 C 8.46 g/m*3 24.4 C 11.3 km/h
488 21-07-2020 16:35:00 24.6 C 8.78 g/m*3 24.6 C 8.1 km/h
489 21-07-2020 16:40:00 24.8 C 8.88 g/m*3 24.8 C 16.1 km/h
490 21-07-2020 16:45:00 24.7 C 8.6 g/m*3 24.7 C 16.1 km/h
491 21-07-2020 16:50:00 24.6 C 8.55 g/m*3 24.6 C 11.3 km/h
492 21-07-2020 16:55:00 24.8 C 8.42 g/m*3 24.8 C 14.5 km/h
493 21-07-2020 17:00:00 24.7 C 8.83 g/m*3 24.7 C 11.3 km/h
494 21-07-2020 17:05:00 24.8 C 8.42 g/m*3 24.8 C 14.5 km/h
495 21-07-2020 17:10:00 24.9 C 8.47 g/m*3 24.9 C 9.7 km/h
496 21-07-2020 17:15:00 25.1 C 8.1 g/m*3 25.1 C 11.3 km/h
497 21-07-2020 17:20:00 25 C 8.52 g/m*3 25 C 12.9 km/h
498 21-07-2020 17:25:00 24.8 C 8.42 g/m*3 24.8 C 14.5 km/h
499 21-07-2020 17:30:00 24.9 C 8.47 g/m*3 24.9 C 9.7 km/h
500 21-07-2020 17:35:00 25 C 8.52 g/m*3 25 C 17.7 km/h
Sensor: Nr:Datum:Temp:Abs-Feuchte:Windchill:Wind:
Aussen-T/F 501 21-07-2020 17:40:00 24.9 C 8.24 g/m*3 24.9 C 16.1 km/h
502 21-07-2020 17:45:00 24.7 C 8.15 g/m*3 24.7 C 14.5 km/h
503 21-07-2020 17:50:00 24.8 C 7.74 g/m*3 24.8 C 11.3 km/h
504 21-07-2020 17:55:00 24.7 C 7.92 g/m*3 24.7 C 11.3 km/h
505 21-07-2020 18:00:00 24.8 C 7.97 g/m*3 24.8 C 9.7 km/h
506 21-07-2020 18:05:00 24.7 C 8.15 g/m*3 24.7 C 14.5 km/h
507 21-07-2020 18:10:00 24.8 C 8.42 g/m*3 24.8 C 12.9 km/h
508 21-07-2020 18:15:00 24.8 C 8.42 g/m*3 24.8 C 14.5 km/h
509 21-07-2020 18:20:00 24.7 C 8.37 g/m*3 24.7 C 12.9 km/h
510 21-07-2020 18:25:00 24.8 C 8.42 g/m*3 24.8 C 8.1 km/h
511 21-07-2020 18:30:00 25.1 C 8.33 g/m*3 25.1 C 12.9 km/h
512 21-07-2020 18:35:00 24.9 C 8.01 g/m*3 24.9 C 9.7 km/h
513 21-07-2020 18:40:00 24.9 C 8.24 g/m*3 24.9 C 14.5 km/h
514 21-07-2020 18:45:00 24.8 C 8.19 g/m*3 24.8 C 14.5 km/h
515 21-07-2020 18:50:00 24.7 C 8.15 g/m*3 24.7 C 11.3 km/h
516 21-07-2020 18:55:00 24.7 C 8.15 g/m*3 24.7 C 9.7 km/h
517 21-07-2020 19:00:00 24.7 C 7.92 g/m*3 24.7 C 12.9 km/h
518 21-07-2020 19:05:00 24.6 C 8.1 g/m*3 24.6 C 12.9 km/h
519 21-07-2020 19:10:00 24.2 C 7.92 g/m*3 24.2 C 16.1 km/h
520 21-07-2020 19:15:00 23.8 C 7.96 g/m*3 23.8 C 14.5 km/h
521 21-07-2020 19:20:00 23.6 C 7.87 g/m*3 23.6 C 14.5 km/h
522 21-07-2020 19:25:00 23.3 C 7.95 g/m*3 23.3 C 9.7 km/h
523 21-07-2020 19:30:00 23.3 C 7.95 g/m*3 23.3 C 4.8 km/h
524 21-07-2020 19:35:00 23.3 C 7.95 g/m*3 23.3 C 8.1 km/h
525 21-07-2020 19:40:00 23.2 C 7.69 g/m*3 23.2 C 9.7 km/h
Sensor: Nr:Datum:Temp:Abs-Feuchte:Windchill:Wind:
Aussen-T/F 526 21-07-2020 19:45:00 23.1 C 7.65 g/m*3 23.1 C 9.7 km/h
527 21-07-2020 19:50:00 23 C 7.6 g/m*3 23 C 8.1 km/h
528 21-07-2020 19:55:00 23 C 7.6 g/m*3 23 C 9.7 km/h
529 21-07-2020 20:00:00 22.9 C 7.36 g/m*3 22.9 C 8.1 km/h
530 21-07-2020 20:05:00 22.8 C 7.52 g/m*3 22.8 C 9.7 km/h
531 21-07-2020 20:10:00 22.7 C 7.48 g/m*3 22.7 C 8.1 km/h
532 21-07-2020 20:15:00 22.5 C 7.39 g/m*3 22.5 C 8.1 km/h
533 21-07-2020 20:20:00 22.4 C 7.75 g/m*3 22.4 C 9.7 km/h
534 21-07-2020 20:25:00 22.2 C 7.85 g/m*3 22.2 C 8.1 km/h
535 21-07-2020 20:30:00 21.9 C 7.72 g/m*3 21.9 C 9.7 km/h
536 21-07-2020 20:35:00 21.8 C 7.67 g/m*3 21.8 C 8.1 km/h
537 21-07-2020 20:40:00 21.7 C 7.82 g/m*3 21.7 C 8.1 km/h
538 21-07-2020 20:45:00 21.6 C 7.78 g/m*3 21.6 C 4.8 km/h
539 21-07-2020 20:50:00 21.4 C 7.5 g/m*3 21.4 C 6.4 km/h
540 21-07-2020 20:55:00 21.2 C 7.41 g/m*3 21.2 C 3.2 km/h
541 21-07-2020 21:00:00 21.1 C 7.55 g/m*3 21.1 C 1.6 km/h
542 21-07-2020 21:05:00 20.9 C 8.01 g/m*3 20.9 C 0 km/h
543 21-07-2020 21:10:00 20.7 C 8.28 g/m*3 20.7 C 1.6 km/h
544 21-07-2020 21:15:00 20.3 C 8.09 g/m*3 20.3 C 1.6 km/h
545 21-07-2020 21:20:00 19.7 C 8.15 g/m*3 19.7 C 3.2 km/h
546 21-07-2020 21:25:00 19.2 C 8.24 g/m*3 19.2 C 4.8 km/h
547 21-07-2020 21:30:00 18.7 C 8.17 g/m*3 18.7 C 3.2 km/h
548 21-07-2020 21:35:00 18.3 C 8.29 g/m*3 18.3 C 3.2 km/h
549 21-07-2020 21:40:00 17.8 C 8.2 g/m*3 17.8 C 3.2 km/h
550 21-07-2020 21:45:00 17.4 C 8.15 g/m*3 17.4 C 3.2 km/h
Sensor: Nr:Datum:Temp:Abs-Feuchte:Windchill:Wind:
Aussen-T/F 551 21-07-2020 21:50:00 17.1 C 8.15 g/m*3 17.1 C 3.2 km/h
552 21-07-2020 21:55:00 16.7 C 7.96 g/m*3 16.7 C 4.8 km/h
553 21-07-2020 22:00:00 16.5 C 8.14 g/m*3 16.5 C 4.8 km/h
554 21-07-2020 22:05:00 16.3 C 8.05 g/m*3 16.3 C 6.4 km/h
555 21-07-2020 22:10:00 16.2 C 8.14 g/m*3 16.2 C 8.1 km/h
556 21-07-2020 22:15:00 16.1 C 8.22 g/m*3 16.1 C 6.4 km/h
557 21-07-2020 22:20:00 15.9 C 8.13 g/m*3 15.9 C 6.4 km/h
558 21-07-2020 22:25:00 15.9 C 8.26 g/m*3 15.9 C 4.8 km/h
559 21-07-2020 22:30:00 15.8 C 8.35 g/m*3 15.8 C 4.8 km/h
560 21-07-2020 22:35:00 15.8 C 8.21 g/m*3 15.8 C 6.4 km/h
561 21-07-2020 22:40:00 15.7 C 8.16 g/m*3 15.7 C 6.4 km/h
562 21-07-2020 22:45:00 15.7 C 8.3 g/m*3 15.7 C 1.6 km/h
563 21-07-2020 22:50:00 15.6 C 8.38 g/m*3 15.6 C 4.8 km/h
564 21-07-2020 22:55:00 15.6 C 8.38 g/m*3 15.6 C 4.8 km/h
565 21-07-2020 23:00:00 15.4 C 8.41 g/m*3 15.4 C 3.2 km/h
566 21-07-2020 23:05:00 15.3 C 8.49 g/m*3 15.3 C 4.8 km/h
567 21-07-2020 23:10:00 15.2 C 8.44 g/m*3 15.2 C 4.8 km/h
568 21-07-2020 23:15:00 15.1 C 8.51 g/m*3 15.1 C 1.6 km/h
569 21-07-2020 23:20:00 14.9 C 8.54 g/m*3 14.9 C 3.2 km/h
570 21-07-2020 23:25:00 14.8 C 8.36 g/m*3 14.8 C 6.4 km/h
571 21-07-2020 23:30:00 14.8 C 8.36 g/m*3 14.8 C 6.4 km/h
572 21-07-2020 23:35:00 14.7 C 8.44 g/m*3 14.7 C 4.8 km/h
573 21-07-2020 23:40:00 14.7 C 8.56 g/m*3 14.7 C 1.6 km/h
574 21-07-2020 23:45:00 14.6 C 8.51 g/m*3 14.6 C 0 km/h
575 21-07-2020 23:50:00 14.5 C 8.58 g/m*3 14.5 C 0 km/h
Sensor: Nr:Datum:Temp:Abs-Feuchte:Windchill:Wind:
Aussen-T/F 576 21-07-2020 23:55:00 14.3 C 8.48 g/m*3 14.3 C 0 km/h
577 22-07-2020 00:00:00 14.2 C 8.55 g/m*3 14.2 C 0 km/h
578 22-07-2020 00:05:00 14.1 C 8.62 g/m*3 14.1 C 0 km/h
579 22-07-2020 00:10:00 13.9 C 8.51 g/m*3 13.9 C 0 km/h
580 22-07-2020 00:15:00 13.8 C 8.58 g/m*3 13.8 C 0 km/h
581 22-07-2020 00:20:00 13.6 C 8.47 g/m*3 13.6 C 0 km/h
582 22-07-2020 00:25:00 13.5 C 8.54 g/m*3 13.5 C 0 km/h
583 22-07-2020 00:30:00 13.3 C 8.55 g/m*3 13.3 C 0 km/h
584 22-07-2020 00:35:00 13.2 C 8.38 g/m*3 13.2 C 0 km/h
585 22-07-2020 00:40:00 13.1 C 8.56 g/m*3 13.1 C 0 km/h
586 22-07-2020 00:45:00 12.9 C 8.45 g/m*3 12.9 C 0 km/h
587 22-07-2020 00:50:00 12.8 C 8.51 g/m*3 12.8 C 0 km/h
588 22-07-2020 00:55:00 12.7 C 8.46 g/m*3 12.7 C 0 km/h
589 22-07-2020 01:00:00 12.6 C 8.52 g/m*3 12.6 C 0 km/h
590 22-07-2020 01:05:00 12.5 C 8.36 g/m*3 12.5 C 0 km/h
591 22-07-2020 01:10:00 12.4 C 8.41 g/m*3 12.4 C 0 km/h
592 22-07-2020 01:15:00 12.3 C 8.36 g/m*3 12.3 C 0 km/h
593 22-07-2020 01:20:00 12.2 C 8.42 g/m*3 12.2 C 0 km/h
594 22-07-2020 01:25:00 12.1 C 8.36 g/m*3 12.1 C 0 km/h
595 22-07-2020 01:30:00 11.9 C 8.26 g/m*3 11.9 C 0 km/h
596 22-07-2020 01:35:00 11.8 C 8.31 g/m*3 11.8 C 0 km/h
597 22-07-2020 01:40:00 11.7 C 8.26 g/m*3 11.7 C 0 km/h
598 22-07-2020 01:45:00 11.6 C 8.21 g/m*3 11.6 C 0 km/h
599 22-07-2020 01:50:00 11.6 C 8.32 g/m*3 11.6 C 0 km/h
600 22-07-2020 01:55:00 11.4 C 8.21 g/m*3 11.4 C 0 km/h
Sensor: Nr:Datum:Temp:Abs-Feuchte:Windchill:Wind:
Aussen-T/F 601 22-07-2020 02:00:00 11.4 C 8.21 g/m*3 11.4 C 0 km/h
602 22-07-2020 02:05:00 11.3 C 8.16 g/m*3 11.3 C 0 km/h
603 22-07-2020 02:10:00 11.3 C 8.26 g/m*3 11.3 C 0 km/h
604 22-07-2020 02:15:00 11.2 C 8.21 g/m*3 11.2 C 0 km/h
605 22-07-2020 02:20:00 11.1 C 8.16 g/m*3 11.1 C 0 km/h
606 22-07-2020 02:25:00 11.1 C 8.16 g/m*3 11.1 C 0 km/h
607 22-07-2020 02:30:00 11 C 8.11 g/m*3 11 C 0 km/h
608 22-07-2020 02:35:00 10.9 C 8.16 g/m*3 10.9 C 0 km/h
609 22-07-2020 02:40:00 10.8 C 8.11 g/m*3 10.8 C 0 km/h
610 22-07-2020 02:45:00 10.8 C 8.11 g/m*3 10.8 C 0 km/h
611 22-07-2020 02:50:00 10.7 C 8.05 g/m*3 10.7 C 0 km/h
612 22-07-2020 02:55:00 10.7 C 8.15 g/m*3 10.7 C 0 km/h
613 22-07-2020 03:00:00 10.6 C 8.1 g/m*3 10.6 C 0 km/h
614 22-07-2020 03:05:00 10.6 C 8.1 g/m*3 10.6 C 0 km/h
615 22-07-2020 03:10:00 10.5 C 8.05 g/m*3 10.5 C 0 km/h
616 22-07-2020 03:15:00 10.4 C 8.1 g/m*3 10.4 C 0 km/h
617 22-07-2020 03:20:00 10.4 C 8.1 g/m*3 10.4 C 0 km/h
618 22-07-2020 03:25:00 10.3 C 8.04 g/m*3 10.3 C 0 km/h
619 22-07-2020 03:30:00 10.3 C 8.04 g/m*3 10.3 C 0 km/h
620 22-07-2020 03:35:00 10.2 C 8.09 g/m*3 10.2 C 0 km/h
621 22-07-2020 03:40:00 10.2 C 8.09 g/m*3 10.2 C 0 km/h
622 22-07-2020 03:45:00 10.1 C 8.04 g/m*3 10.1 C 0 km/h
623 22-07-2020 03:50:00 10.1 C 8.04 g/m*3 10.1 C 0 km/h
624 22-07-2020 03:55:00 10 C 8.08 g/m*3 10 C 0 km/h
625 22-07-2020 04:00:00 9.9 C 8.03 g/m*3 9.9 C 0 km/h
Sensor: Nr:Datum:Temp:Abs-Feuchte:Windchill:Wind:
Aussen-T/F 626 22-07-2020 04:05:00 9.9 C 8.03 g/m*3 9.9 C 0 km/h
627 22-07-2020 04:10:00 9.8 C 7.98 g/m*3 9.8 C 0 km/h
628 22-07-2020 04:15:00 9.8 C 7.98 g/m*3 9.8 C 0 km/h
629 22-07-2020 04:20:00 9.7 C 8.02 g/m*3 9.7 C 0 km/h
630 22-07-2020 04:25:00 9.7 C 8.02 g/m*3 9.7 C 0 km/h
631 22-07-2020 04:30:00 9.6 C 7.97 g/m*3 9.6 C 0 km/h
632 22-07-2020 04:35:00 9.6 C 7.97 g/m*3 9.6 C 0 km/h
633 22-07-2020 04:40:00 9.6 C 7.97 g/m*3 9.6 C 0 km/h
634 22-07-2020 04:45:00 9.5 C 8.01 g/m*3 9.5 C 0 km/h
635 22-07-2020 04:50:00 9.4 C 7.96 g/m*3 9.4 C 0 km/h
636 22-07-2020 04:55:00 9.4 C 7.96 g/m*3 9.4 C 0 km/h
637 22-07-2020 05:00:00 9.4 C 7.96 g/m*3 9.4 C 0 km/h
638 22-07-2020 05:05:00 9.3 C 7.91 g/m*3 9.3 C 0 km/h
639 22-07-2020 05:10:00 9.3 C 7.91 g/m*3 9.3 C 0 km/h
640 22-07-2020 05:15:00 9.3 C 8 g/m*3 9.3 C 0 km/h
641 22-07-2020 05:20:00 9.3 C 8 g/m*3 9.3 C 0 km/h
642 22-07-2020 05:25:00 9.3 C 8 g/m*3 9.3 C 0 km/h
643 22-07-2020 05:30:00 9.3 C 8 g/m*3 9.3 C 0 km/h
644 22-07-2020 05:35:00 9.2 C 7.95 g/m*3 9.2 C 0 km/h
645 22-07-2020 05:40:00 9.2 C 7.95 g/m*3 9.2 C 0 km/h
646 22-07-2020 05:45:00 9.1 C 7.9 g/m*3 9.1 C 0 km/h
647 22-07-2020 05:50:00 9.1 C 7.9 g/m*3 9.1 C 0 km/h
648 22-07-2020 05:55:00 9.1 C 7.99 g/m*3 9.1 C 0 km/h
649 22-07-2020 06:00:00 9.1 C 7.99 g/m*3 9.1 C 0 km/h
650 22-07-2020 06:05:00 9.1 C 7.99 g/m*3 9.1 C 0 km/h
Sensor: Nr:Datum:Temp:Abs-Feuchte:Windchill:Wind:
Aussen-T/F 651 22-07-2020 06:10:00 9.1 C 8.07 g/m*3 9.1 C 0 km/h
652 22-07-2020 06:15:00 9.1 C 8.07 g/m*3 9.1 C 0 km/h
653 22-07-2020 06:20:00 9.1 C 8.07 g/m*3 9.1 C 0 km/h
654 22-07-2020 06:25:00 9.2 C 8.13 g/m*3 9.2 C 0 km/h
655 22-07-2020 06:30:00 9.1 C 8.07 g/m*3 9.1 C 0 km/h
656 22-07-2020 06:35:00 9.1 C 8.07 g/m*3 9.1 C 0 km/h
657 22-07-2020 06:40:00 9.2 C 8.13 g/m*3 9.2 C 0 km/h
658 22-07-2020 06:45:00 9.2 C 8.13 g/m*3 9.2 C 0 km/h
659 22-07-2020 06:50:00 9.2 C 8.13 g/m*3 9.2 C 0 km/h
660 22-07-2020 06:55:00 9.2 C 8.13 g/m*3 9.2 C 0 km/h
661 22-07-2020 07:00:00 9.2 C 8.13 g/m*3 9.2 C 0 km/h
662 22-07-2020 07:05:00 9.3 C 8.18 g/m*3 9.3 C 0 km/h
663 22-07-2020 07:10:00 9.3 C 8.27 g/m*3 9.3 C 0 km/h
664 22-07-2020 07:15:00 9.3 C 8.27 g/m*3 9.3 C 0 km/h
665 22-07-2020 07:20:00 9.4 C 8.32 g/m*3 9.4 C 0 km/h
666 22-07-2020 07:25:00 9.4 C 8.32 g/m*3 9.4 C 0 km/h
667 22-07-2020 07:30:00 9.5 C 8.37 g/m*3 9.5 C 0 km/h
668 22-07-2020 07:35:00 9.6 C 8.43 g/m*3 9.6 C 0 km/h
669 22-07-2020 07:40:00 9.7 C 8.48 g/m*3 9.7 C 0 km/h
670 22-07-2020 07:45:00 9.8 C 8.63 g/m*3 9.8 C 0 km/h
671 22-07-2020 07:50:00 9.8 C 8.63 g/m*3 9.8 C 0 km/h
672 22-07-2020 07:55:00 10 C 8.74 g/m*3 10 C 0 km/h
673 22-07-2020 08:00:00 10.2 C 8.85 g/m*3 10.2 C 0 km/h
674 22-07-2020 08:05:00 10.3 C 8.91 g/m*3 10.3 C 0 km/h
675 22-07-2020 08:10:00 10.5 C 9.02 g/m*3 10.5 C 0 km/h
Sensor: Nr:Datum:Temp:Abs-Feuchte:Windchill:Wind:
Aussen-T/F 676 22-07-2020 08:15:00 10.7 C 9.13 g/m*3 10.7 C 0 km/h
677 22-07-2020 08:20:00 10.8 C 9.19 g/m*3 10.8 C 0 km/h
678 22-07-2020 08:25:00 10.9 C 9.25 g/m*3 10.9 C 0 km/h
679 22-07-2020 08:30:00 10.9 C 9.25 g/m*3 10.9 C 0 km/h
680 22-07-2020 08:35:00 11.1 C 9.37 g/m*3 11.1 C 0 km/h
681 22-07-2020 08:40:00 11.2 C 9.43 g/m*3 11.2 C 0 km/h
682 22-07-2020 08:45:00 11.3 C 9.49 g/m*3 11.3 C 0 km/h
683 22-07-2020 08:50:00 11.5 C 9.5 g/m*3 11.5 C 0 km/h
684 22-07-2020 08:55:00 11.7 C 9.62 g/m*3 11.7 C 0 km/h
685 22-07-2020 09:00:00 11.8 C 9.68 g/m*3 11.8 C 0 km/h
686 22-07-2020 09:05:00 11.9 C 9.74 g/m*3 11.9 C 0 km/h
687 22-07-2020 09:10:00 12.1 C 9.76 g/m*3 12.1 C 0 km/h
688 22-07-2020 09:15:00 12.3 C 9.88 g/m*3 12.3 C 0 km/h
689 22-07-2020 09:20:00 12.4 C 9.83 g/m*3 12.4 C 0 km/h
690 22-07-2020 09:25:00 12.5 C 9.78 g/m*3 12.5 C 0 km/h
691 22-07-2020 09:30:00 12.7 C 9.8 g/m*3 12.7 C 0 km/h
692 22-07-2020 09:35:00 12.8 C 9.74 g/m*3 12.8 C 0 km/h
693 22-07-2020 09:40:00 13.3 C 9.94 g/m*3 13.3 C 3.2 km/h
694 22-07-2020 09:45:00 13.6 C 9.89 g/m*3 13.6 C 3.2 km/h
695 22-07-2020 09:50:00 13.9 C 9.95 g/m*3 13.9 C 1.6 km/h
696 22-07-2020 09:55:00 14.2 C 9.89 g/m*3 14.2 C 4.8 km/h
697 22-07-2020 10:00:00 14.6 C 10.01 g/m*3 14.6 C 1.6 km/h
698 22-07-2020 10:05:00 14.8 C 10.01 g/m*3 14.8 C 1.6 km/h
699 22-07-2020 10:10:00 15 C 10.13 g/m*3 15 C 1.6 km/h
700 22-07-2020 10:15:00 15.3 C 10.19 g/m*3 15.3 C 1.6 km/h
Sensor: Nr:Datum:Temp:Abs-Feuchte:Windchill:Wind:
Aussen-T/F 701 22-07-2020 10:20:00 15.4 C 10.12 g/m*3 15.4 C 3.2 km/h
702 22-07-2020 10:25:00 15.7 C 9.9 g/m*3 15.7 C 3.2 km/h
703 22-07-2020 10:30:00 16.1 C 10.14 g/m*3 16.1 C 3.2 km/h
704 22-07-2020 10:35:00 16.5 C 9.83 g/m*3 16.5 C 4.8 km/h
705 22-07-2020 10:40:00 16.9 C 9.64 g/m*3 16.9 C 3.2 km/h
706 22-07-2020 10:45:00 17.3 C 9.87 g/m*3 17.3 C 4.8 km/h
707 22-07-2020 10:50:00 17.7 C 9.51 g/m*3 17.7 C 4.8 km/h
708 22-07-2020 10:55:00 17.9 C 9.62 g/m*3 17.9 C 4.8 km/h
709 22-07-2020 11:00:00 18.3 C 9.69 g/m*3 18.3 C 4.8 km/h
710 22-07-2020 11:05:00 18.6 C 9.71 g/m*3 18.6 C 4.8 km/h
711 22-07-2020 11:10:00 18.7 C 9.45 g/m*3 18.7 C 1.6 km/h
712 22-07-2020 11:15:00 18.8 C 9.34 g/m*3 18.8 C 4.8 km/h
713 22-07-2020 11:20:00 18.9 C 9.23 g/m*3 18.9 C 3.2 km/h
714 22-07-2020 11:25:00 19.1 C 9.18 g/m*3 19.1 C 3.2 km/h
715 22-07-2020 11:30:00 19.3 C 8.96 g/m*3 19.3 C 1.6 km/h
716 22-07-2020 11:35:00 19.4 C 8.51 g/m*3 19.4 C 8.1 km/h
717 22-07-2020 11:40:00 19.7 C 8.66 g/m*3 19.7 C 8.1 km/h
718 22-07-2020 11:45:00 19.8 C 8.71 g/m*3 19.8 C 3.2 km/h
719 22-07-2020 11:50:00 19.9 C 8.59 g/m*3 19.9 C 6.4 km/h
720 22-07-2020 11:55:00 20.1 C 8.52 g/m*3 20.1 C 3.2 km/h
721 22-07-2020 12:00:00 20.1 C 8.87 g/m*3 20.1 C 4.8 km/h
722 22-07-2020 12:05:00 20.2 C 8.74 g/m*3 20.2 C 6.4 km/h
723 22-07-2020 12:10:00 20.4 C 8.49 g/m*3 20.4 C 11.3 km/h
724 22-07-2020 12:15:00 20.6 C 8.23 g/m*3 20.6 C 8.1 km/h
725 22-07-2020 12:20:00 20.8 C 8.33 g/m*3 20.8 C 8.1 km/h
Sensor: Nr:Datum:Temp:Abs-Feuchte:Windchill:Wind:
Aussen-T/F 726 22-07-2020 12:25:00 20.7 C 8.28 g/m*3 20.7 C 6.4 km/h
727 22-07-2020 12:30:00 20.7 C 8.46 g/m*3 20.7 C 6.4 km/h
728 22-07-2020 12:35:00 20.9 C 8.01 g/m*3 20.9 C 9.7 km/h
729 22-07-2020 12:40:00 21.1 C 7.55 g/m*3 21.1 C 4.8 km/h
730 22-07-2020 12:45:00 21.2 C 6.86 g/m*3 21.2 C 8.1 km/h
731 22-07-2020 12:50:00 21.3 C 7.27 g/m*3 21.3 C 6.4 km/h
732 22-07-2020 12:55:00 21.4 C 7.31 g/m*3 21.4 C 8.1 km/h
733 22-07-2020 13:00:00 21.6 C 7.59 g/m*3 21.6 C 9.7 km/h
734 22-07-2020 13:05:00 21.7 C 7.44 g/m*3 21.7 C 12.9 km/h
735 22-07-2020 13:10:00 21.7 C 7.63 g/m*3 21.7 C 9.7 km/h
736 22-07-2020 13:15:00 21.6 C 7.4 g/m*3 21.6 C 4.8 km/h
737 22-07-2020 13:20:00 21.6 C 7.78 g/m*3 21.6 C 3.2 km/h
738 22-07-2020 13:25:00 21.7 C 7.82 g/m*3 21.7 C 6.4 km/h
739 22-07-2020 13:30:00 21.9 C 7.72 g/m*3 21.9 C 9.7 km/h
740 22-07-2020 13:35:00 22.1 C 7.81 g/m*3 22.1 C 8.1 km/h
741 22-07-2020 13:40:00 22.2 C 7.85 g/m*3 22.2 C 9.7 km/h
742 22-07-2020 13:45:00 22.3 C 7.9 g/m*3 22.3 C 9.7 km/h
743 22-07-2020 13:50:00 22.3 C 7.7 g/m*3 22.3 C 12.9 km/h
744 22-07-2020 13:55:00 22.4 C 7.75 g/m*3 22.4 C 8.1 km/h
745 22-07-2020 14:00:00 22.5 C 7.99 g/m*3 22.5 C 8.1 km/h
746 22-07-2020 14:05:00 22.7 C 8.08 g/m*3 22.7 C 12.9 km/h
747 22-07-2020 14:10:00 22.7 C 7.88 g/m*3 22.7 C 4.8 km/h
748 22-07-2020 14:15:00 22.8 C 7.72 g/m*3 22.8 C 3.2 km/h
749 22-07-2020 14:20:00 22.8 C 7.92 g/m*3 22.8 C 4.8 km/h
750 22-07-2020 14:25:00 22.9 C 7.36 g/m*3 22.9 C 12.9 km/h
Sensor: Nr:Datum:Temp:Abs-Feuchte:Windchill:Wind:
Aussen-T/F 751 22-07-2020 14:30:00 23 C 7.6 g/m*3 23 C 11.3 km/h
752 22-07-2020 14:35:00 23.3 C 7.53 g/m*3 23.3 C 9.7 km/h
753 22-07-2020 14:40:00 23.4 C 7.57 g/m*3 23.4 C 9.7 km/h
754 22-07-2020 14:45:00 23.6 C 7.44 g/m*3 23.6 C 9.7 km/h
755 22-07-2020 14:50:00 23.8 C 7.31 g/m*3 23.8 C 6.4 km/h
756 22-07-2020 14:55:00 23.8 C 7.53 g/m*3 23.8 C 6.4 km/h
757 22-07-2020 15:00:00 23.9 C 7.79 g/m*3 23.9 C 12.9 km/h
758 22-07-2020 15:05:00 24.1 C 7.44 g/m*3 24.1 C 9.7 km/h
759 22-07-2020 15:10:00 24.1 C 7.44 g/m*3 24.1 C 8.1 km/h
760 22-07-2020 15:15:00 24.1 C 7.66 g/m*3 24.1 C 6.4 km/h
761 22-07-2020 15:20:00 24.1 C 7.66 g/m*3 24.1 C 6.4 km/h
762 22-07-2020 15:25:00 24.2 C 8.14 g/m*3 24.2 C 11.3 km/h
763 22-07-2020 15:30:00 24.4 C 8.01 g/m*3 24.4 C 16.1 km/h
764 22-07-2020 15:35:00 24.5 C 8.06 g/m*3 24.5 C 16.1 km/h
765 22-07-2020 15:40:00 24.8 C 8.42 g/m*3 24.8 C 9.7 km/h
766 22-07-2020 15:45:00 25.1 C 8.57 g/m*3 25.1 C 12.9 km/h
767 22-07-2020 15:50:00 25.3 C 8.66 g/m*3 25.3 C 8.1 km/h
768 22-07-2020 15:55:00 25.4 C 8.71 g/m*3 25.4 C 11.3 km/h
769 22-07-2020 16:00:00 25.7 C 8.62 g/m*3 25.7 C 11.3 km/h
770 22-07-2020 16:05:00 25.8 C 8.67 g/m*3 25.8 C 11.3 km/h
771 22-07-2020 16:10:00 25.9 C 8.72 g/m*3 25.9 C 8.1 km/h
772 22-07-2020 16:15:00 26.1 C 8.81 g/m*3 26.1 C 12.9 km/h
773 22-07-2020 16:20:00 26.2 C 8.86 g/m*3 26.2 C 9.7 km/h
774 22-07-2020 16:25:00 26.1 C 8.81 g/m*3 26.1 C 12.9 km/h
775 22-07-2020 16:30:00 26.2 C 8.62 g/m*3 26.2 C 12.9 km/h
Sensor: Nr:Datum:Temp:Abs-Feuchte:Windchill:Wind:
Aussen-T/F 776 22-07-2020 16:35:00 26.1 C 8.57 g/m*3 26.1 C 11.3 km/h
777 22-07-2020 16:40:00 26.2 C 8.86 g/m*3 26.2 C 9.7 km/h
778 22-07-2020 16:45:00 26.1 C 8.81 g/m*3 26.1 C 16.1 km/h
779 22-07-2020 16:50:00 25.9 C 8.72 g/m*3 25.9 C 14.5 km/h
780 22-07-2020 16:55:00 25.6 C 8.57 g/m*3 25.6 C 14.5 km/h
781 22-07-2020 17:00:00 25.3 C 8.43 g/m*3 25.3 C 14.5 km/h
782 22-07-2020 17:05:00 25.3 C 8.9 g/m*3 25.3 C 12.9 km/h
783 22-07-2020 17:10:00 25.4 C 8.24 g/m*3 25.4 C 14.5 km/h
784 22-07-2020 17:15:00 25.4 C 8.48 g/m*3 25.4 C 9.7 km/h
785 22-07-2020 17:20:00 25.4 C 8.24 g/m*3 25.4 C 12.9 km/h
786 22-07-2020 17:25:00 25.6 C 8.81 g/m*3 25.6 C 16.1 km/h
787 22-07-2020 17:30:00 25.8 C 8.67 g/m*3 25.8 C 11.3 km/h
788 22-07-2020 17:35:00 25.8 C 8.19 g/m*3 25.8 C 12.9 km/h
789 22-07-2020 17:40:00 25.7 C 8.86 g/m*3 25.7 C 11.3 km/h
790 22-07-2020 17:45:00 25.8 C 8.67 g/m*3 25.8 C 14.5 km/h
791 22-07-2020 17:50:00 26.1 C 8.81 g/m*3 26.1 C 11.3 km/h
792 22-07-2020 17:55:00 26.4 C 8.71 g/m*3 26.4 C 11.3 km/h
793 22-07-2020 18:00:00 26.3 C 8.66 g/m*3 26.3 C 9.7 km/h
794 22-07-2020 18:05:00 26.1 C 8.81 g/m*3 26.1 C 11.3 km/h
795 22-07-2020 18:10:00 25.8 C 8.67 g/m*3 25.8 C 11.3 km/h
796 22-07-2020 18:15:00 25.7 C 8.62 g/m*3 25.7 C 19.3 km/h
797 22-07-2020 18:20:00 25.3 C 8.66 g/m*3 25.3 C 19.3 km/h
798 22-07-2020 18:25:00 25.1 C 8.57 g/m*3 25.1 C 12.9 km/h
799 22-07-2020 18:30:00 24.7 C 8.6 g/m*3 24.7 C 9.7 km/h
800 22-07-2020 18:35:00 24.3 C 8.63 g/m*3 24.3 C 11.3 km/h
Sensor: Nr:Datum:Temp:Abs-Feuchte:Windchill:Wind:
Aussen-T/F 801 22-07-2020 18:40:00 23.9 C 8.44 g/m*3 23.9 C 11.3 km/h
802 22-07-2020 18:45:00 23.6 C 8.72 g/m*3 23.6 C 12.9 km/h
803 22-07-2020 18:50:00 23.6 C 8.93 g/m*3 23.6 C 11.3 km/h
804 22-07-2020 18:55:00 23.6 C 8.93 g/m*3 23.6 C 8.1 km/h
805 22-07-2020 19:00:00 24 C 8.92 g/m*3 24 C 12.9 km/h
806 22-07-2020 19:05:00 24.3 C 9.07 g/m*3 24.3 C 9.7 km/h
807 22-07-2020 19:10:00 24.4 C 8.9 g/m*3 24.4 C 16.1 km/h
808 22-07-2020 19:15:00 24.2 C 8.8 g/m*3 24.2 C 12.9 km/h
809 22-07-2020 19:20:00 23.8 C 9.03 g/m*3 23.8 C 14.5 km/h
810 22-07-2020 19:25:00 23.8 C 9.03 g/m*3 23.8 C 11.3 km/h
811 22-07-2020 19:30:00 23.8 C 8.82 g/m*3 23.8 C 11.3 km/h
812 22-07-2020 19:35:00 23.8 C 8.82 g/m*3 23.8 C 11.3 km/h
813 22-07-2020 19:40:00 23.6 C 8.93 g/m*3 23.6 C 11.3 km/h
814 22-07-2020 19:45:00 23.5 C 8.88 g/m*3 23.5 C 9.7 km/h
815 22-07-2020 19:50:00 23.4 C 8.83 g/m*3 23.4 C 8.1 km/h
816 22-07-2020 19:55:00 23.3 C 8.99 g/m*3 23.3 C 11.3 km/h
817 22-07-2020 20:00:00 23.2 C 8.94 g/m*3 23.2 C 9.7 km/h
818 22-07-2020 20:05:00 23.1 C 8.89 g/m*3 23.1 C 14.5 km/h
819 22-07-2020 20:10:00 23 C 9.04 g/m*3 23 C 12.9 km/h
820 22-07-2020 20:15:00 22.9 C 8.99 g/m*3 22.9 C 11.3 km/h
821 22-07-2020 20:20:00 22.9 C 8.99 g/m*3 22.9 C 12.9 km/h
822 22-07-2020 20:25:00 22.8 C 8.94 g/m*3 22.8 C 12.9 km/h
823 22-07-2020 20:30:00 22.7 C 9.09 g/m*3 22.7 C 9.7 km/h
824 22-07-2020 20:35:00 22.5 C 8.99 g/m*3 22.5 C 9.7 km/h
825 22-07-2020 20:40:00 22.4 C 8.94 g/m*3 22.4 C 8.1 km/h
Sensor: Nr:Datum:Temp:Abs-Feuchte:Windchill:Wind:
Aussen-T/F 826 22-07-2020 20:45:00 22.2 C 8.83 g/m*3 22.2 C 9.7 km/h
827 22-07-2020 20:50:00 22.1 C 8.98 g/m*3 22.1 C 4.8 km/h
828 22-07-2020 20:55:00 21.9 C 8.88 g/m*3 21.9 C 4.8 km/h
829 22-07-2020 21:00:00 21.7 C 8.97 g/m*3 21.7 C 6.4 km/h
830 22-07-2020 21:05:00 21.6 C 8.91 g/m*3 21.6 C 4.8 km/h
831 22-07-2020 21:10:00 21.4 C 8.81 g/m*3 21.4 C 3.2 km/h
832 22-07-2020 21:15:00 21.2 C 8.71 g/m*3 21.2 C 8.1 km/h
833 22-07-2020 21:20:00 21.1 C 9.21 g/m*3 21.1 C 3.2 km/h
834 22-07-2020 21:25:00 20.8 C 8.87 g/m*3 20.8 C 8.1 km/h
835 22-07-2020 21:30:00 20.6 C 9.13 g/m*3 20.6 C 1.6 km/h
836 22-07-2020 21:35:00 20.4 C 9.02 g/m*3 20.4 C 1.6 km/h
837 22-07-2020 21:40:00 20.1 C 9.39 g/m*3 20.1 C 0 km/h
838 22-07-2020 21:45:00 19.7 C 9.17 g/m*3 19.7 C 3.2 km/h
839 22-07-2020 21:50:00 19.3 C 9.29 g/m*3 19.3 C 1.6 km/h
840 22-07-2020 21:55:00 18.9 C 9.07 g/m*3 18.9 C 1.6 km/h
841 22-07-2020 22:00:00 18.6 C 8.91 g/m*3 18.6 C 3.2 km/h
842 22-07-2020 22:05:00 18.3 C 8.91 g/m*3 18.3 C 1.6 km/h
843 22-07-2020 22:10:00 18.2 C 9.01 g/m*3 18.2 C 6.4 km/h
844 22-07-2020 22:15:00 18 C 9.06 g/m*3 18 C 4.8 km/h
845 22-07-2020 22:20:00 17.8 C 8.95 g/m*3 17.8 C 4.8 km/h
846 22-07-2020 22:25:00 17.7 C 9.05 g/m*3 17.7 C 4.8 km/h
847 22-07-2020 22:30:00 17.5 C 9.09 g/m*3 17.5 C 4.8 km/h
848 22-07-2020 22:35:00 17.3 C 8.99 g/m*3 17.3 C 4.8 km/h
849 22-07-2020 22:40:00 17.2 C 8.93 g/m*3 17.2 C 3.2 km/h
850 22-07-2020 22:45:00 17.1 C 9.03 g/m*3 17.1 C 3.2 km/h
Sensor: Nr:Datum:Temp:Abs-Feuchte:Windchill:Wind:
Aussen-T/F 851 22-07-2020 22:50:00 17.1 C 9.03 g/m*3 17.1 C 4.8 km/h
852 22-07-2020 22:55:00 16.9 C 9.06 g/m*3 16.9 C 3.2 km/h
853 22-07-2020 23:00:00 16.8 C 9.01 g/m*3 16.8 C 4.8 km/h
854 22-07-2020 23:05:00 16.7 C 8.95 g/m*3 16.7 C 0 km/h
855 22-07-2020 23:10:00 16.6 C 8.9 g/m*3 16.6 C 0 km/h
856 22-07-2020 23:15:00 16.5 C 8.99 g/m*3 16.5 C 3.2 km/h
857 22-07-2020 23:20:00 16.4 C 8.93 g/m*3 16.4 C 3.2 km/h
858 22-07-2020 23:25:00 16.3 C 9.02 g/m*3 16.3 C 4.8 km/h
859 22-07-2020 23:30:00 16.2 C 8.96 g/m*3 16.2 C 1.6 km/h
860 22-07-2020 23:35:00 16.2 C 8.83 g/m*3 16.2 C 3.2 km/h
861 22-07-2020 23:40:00 16.1 C 9.05 g/m*3 16.1 C 3.2 km/h
862 22-07-2020 23:45:00 16.1 C 8.77 g/m*3 16.1 C 4.8 km/h
863 22-07-2020 23:50:00 16.1 C 8.91 g/m*3 16.1 C 3.2 km/h
864 22-07-2020 23:55:00 16 C 8.86 g/m*3 16 C 1.6 km/h

Legende:
   Min
   Max


Maximal/Minimal-Werte vom 20.07.2020 - 22.07.2020

Sensor Min Max Avg
Temp
(Aussen-T/F)
9.1 °C
22-07-2020  05:45:00
26.4 °C
22-07-2020  17:55:00
18.07 °C
Abs-Feuchte
(Aussen-T/F)
6.86 g/m*3
22-07-2020  12:45:00
13.66 g/m*3
20-07-2020  07:50:00
9.76 g/m*3
Windchill
(Aussen-T/F)
9.1 C
22-07-2020  05:45:00
26.4 C
22-07-2020  17:55:00
18.05 C

Die Daten stammen von einer Davis Vantage Pro 2 Wetter-Station und werden unter Linux mit der Software wview2wettercgi und aufbereitet. Alle Angaben erfolgen ohne Gewähr für ihre Vollständigkeit oder Richtigkeit.
Kontakt: Rainer Krienke krienke@uni-koblenz.de . Meine Webseiten an der Uni Koblenz oder privat.
Version: $Revision: 0.78 $